Time;durP1;ratioP1;P1;durP2;ratioP2;P2;SDS_P1;SDS_P2;PMS_P1;PMS_P2;Temp;Humidity;BMP_temperature;BMP_pressure;BME280_temperature;BME280_humidity;BME280_pressure;Samples;Min_cycle;Max_cycle;Signal;HPM_P1;HPM_P2
2023/03/30 00:02:47;;;;;;;8.67;3.00;;;14.00;35.90;;;;;;10232909;28;20220;-70
2023/03/30 00:07:51;;;;;;;2.90;2.60;;;14.00;35.60;;;;;;10237685;28;20236;-70
2023/03/30 00:12:56;;;;;;;5.53;3.03;;;14.10;35.50;;;;;;10241119;28;20324;-71
2023/03/30 00:18:00;;;;;;;5.50;2.90;;;14.10;35.90;;;;;;10235858;28;20228;-71
2023/03/30 00:23:03;;;;;;;2.87;2.47;;;14.10;35.60;;;;;;10242112;28;20224;-71
2023/03/30 00:28:08;;;;;;;5.53;2.90;;;14.00;35.50;;;;;;10242963;28;20232;-70
2023/03/30 00:33:11;;;;;;;3.53;2.33;;;14.00;36.00;;;;;;10234938;28;20255;-71
2023/03/30 00:38:14;;;;;;;4.33;2.90;;;14.10;35.70;;;;;;10229813;28;20239;-70
2023/03/30 00:43:19;;;;;;;3.07;2.47;;;14.10;35.80;;;;;;10234609;28;20762;-70
2023/03/30 00:48:26;;;;;;;4.27;2.70;;;14.10;36.10;;;;;;10243749;28;21080;-70
2023/03/30 00:53:33;;;;;;;4.30;2.73;;;14.10;36.10;;;;;;10244361;28;20288;-70
2023/03/30 00:58:39;;;;;;;6.63;2.77;;;14.10;36.30;;;;;;10246787;28;20229;-70
2023/03/30 01:03:46;;;;;;;7.13;3.20;;;14.10;36.40;;;;;;10250855;28;20235;-70
2023/03/30 01:08:51;;;;;;;6.57;3.00;;;14.00;36.40;;;;;;10243175;28;20250;-71
2023/03/30 01:13:58;;;;;;;5.00;2.70;;;14.00;36.00;;;;;;10250238;28;20224;-70
2023/03/30 01:19:17;;;;;;;5.00;2.37;;;14.00;36.50;;;;;;10250977;28;20229;-71
2023/03/30 01:25:06;;;;;;;5.30;2.63;;;14.10;36.80;;;;;;10242494;28;20228;-71
2023/03/30 01:30:37;;;;;;;3.80;2.33;;;14.10;36.80;;;;;;10319465;28;20227;-70
2023/03/30 01:36:09;;;;;;;4.30;2.40;;;14.20;36.80;;;;;;10315923;28;20237;-71
2023/03/30 01:41:21;;;;;;;4.17;2.60;;;14.30;37.00;;;;;;10322019;28;20242;-71
2023/03/30 01:46:29;;;;;;;4.97;2.57;;;14.30;36.60;;;;;;10327019;28;20234;-70
2023/03/30 01:51:40;;;;;;;3.27;2.50;;;14.40;36.50;;;;;;10318144;28;20314;-70
2023/03/30 01:56:49;;;;;;;2.97;2.20;;;14.40;36.60;;;;;;10320186;28;20258;-70
2023/03/30 02:01:59;;;;;;;3.00;2.10;;;14.40;36.60;;;;;;10327659;28;20222;-71
2023/03/30 02:07:08;;;;;;;5.97;2.60;;;14.40;36.10;;;;;;10309620;28;20326;-70
2023/03/30 02:12:13;;;;;;;3.93;2.07;;;14.30;36.60;;;;;;10322820;28;20226;-71
2023/03/30 02:17:19;;;;;;;3.23;2.33;;;14.30;36.20;;;;;;10308866;28;20235;-71
2023/03/30 02:22:24;;;;;;;3.27;2.60;;;14.30;36.30;;;;;;10321824;28;20227;-70
2023/03/30 02:27:28;;;;;;;4.00;2.30;;;14.30;36.10;;;;;;10326865;28;20242;-71
2023/03/30 02:32:41;;;;;;;7.30;2.50;;;14.30;36.30;;;;;;10316252;28;20898;-71
2023/03/30 02:38:14;;;;;;;7.23;2.30;;;14.20;36.90;;;;;;10325777;28;20315;-70
2023/03/30 02:43:33;;;;;;;4.93;1.83;;;14.20;37.40;;;;;;10319513;28;20840;-72
2023/03/30 02:48:42;;;;;;;7.67;2.13;;;14.30;38.00;;;;;;10316807;28;20233;-70
2023/03/30 02:53:52;;;;;;;7.20;2.43;;;14.50;38.40;;;;;;10312646;28;20215;-73
2023/03/30 02:59:02;;;;;;;7.07;2.47;;;14.70;38.50;;;;;;10322274;28;20227;-70
2023/03/30 03:04:08;;;;;;;4.40;2.17;;;14.80;38.90;;;;;;10318829;28;20249;-71
2023/03/30 03:09:12;;;;;;;3.80;1.80;;;14.80;38.30;;;;;;10329298;28;20606;-71
2023/03/30 03:14:16;;;;;;;6.97;2.80;;;14.90;38.20;;;;;;10309848;28;20223;-71
2023/03/30 03:19:19;;;;;;;7.53;2.13;;;14.90;38.50;;;;;;10312292;28;20260;-70
2023/03/30 03:24:22;;;;;;;7.43;2.20;;;14.90;38.10;;;;;;10307815;28;20238;-70
2023/03/30 03:29:27;;;;;;;9.60;2.50;;;15.00;38.20;;;;;;10322420;28;20234;-70
2023/03/30 03:34:31;;;;;;;5.90;2.20;;;15.10;38.70;;;;;;10318048;28;20231;-71
2023/03/30 03:39:36;;;;;;;6.63;2.07;;;15.10;38.40;;;;;;10316145;28;20222;-70
2023/03/30 03:44:40;;;;;;;7.20;2.63;;;15.10;38.40;;;;;;10315840;28;20707;-70
2023/03/30 03:49:43;;;;;;;7.70;2.30;;;15.10;38.90;;;;;;10314171;28;20231;-70
2023/03/30 03:54:47;;;;;;;7.87;2.40;;;15.00;39.20;;;;;;10321881;28;20874;-70
2023/03/30 03:59:52;;;;;;;6.07;2.40;;;15.00;38.70;;;;;;10311498;28;20754;-70
2023/03/30 04:04:56;;;;;;;6.27;2.40;;;14.90;39.20;;;;;;10311831;28;20228;-70
2023/03/30 04:09:59;;;;;;;8.43;2.73;;;14.90;38.80;;;;;;10315555;28;20670;-69
2023/03/30 04:15:05;;;;;;;9.17;2.70;;;14.90;39.60;;;;;;10313879;28;20219;-70
2023/03/30 04:20:11;;;;;;;6.70;2.80;;;14.90;39.60;;;;;;10309285;28;20239;-70
2023/03/30 04:25:14;;;;;;;7.03;2.10;;;14.90;39.90;;;;;;10317166;28;20273;-71
2023/03/30 04:30:21;;;;;;;8.57;2.40;;;15.00;40.10;;;;;;10315780;28;20725;-70
2023/03/30 04:35:24;;;;;;;11.27;3.70;;;15.10;41.20;;;;;;10329392;28;20671;-70
2023/03/30 04:40:27;;;;;;;10.70;3.23;;;15.10;40.50;;;;;;10308960;28;20258;-70
2023/03/30 04:45:32;;;;;;;6.07;2.70;;;15.30;41.00;;;;;;10318859;28;20281;-70
2023/03/30 04:50:36;;;;;;;9.80;3.10;;;15.40;41.30;;;;;;10319635;28;20234;-70
2023/03/30 04:55:40;;;;;;;7.03;2.47;;;15.40;40.90;;;;;;10321192;28;20841;-70
2023/03/30 05:00:44;;;;;;;9.13;2.90;;;15.50;40.80;;;;;;10321113;28;20742;-70
2023/03/30 05:05:47;;;;;;;9.73;2.70;;;15.50;40.80;;;;;;10322959;28;20254;-70
2023/03/30 05:10:51;;;;;;;10.13;3.43;;;15.50;40.60;;;;;;10326639;28;20291;-69
2023/03/30 05:15:55;;;;;;;9.07;2.83;;;15.40;40.60;;;;;;10326113;28;20223;-69
2023/03/30 05:20:59;;;;;;;8.83;2.77;;;15.40;41.50;;;;;;10322713;28;20227;-69
2023/03/30 05:26:03;;;;;;;9.20;2.80;;;15.40;41.30;;;;;;10322512;28;20735;-69
2023/03/30 05:31:08;;;;;;;11.27;3.37;;;15.40;41.30;;;;;;10330045;28;20324;-69
2023/03/30 05:36:11;;;;;;;5.90;2.60;;;15.40;41.80;;;;;;10323237;28;20774;-69
2023/03/30 05:41:16;;;;;;;8.33;2.90;;;15.40;41.60;;;;;;10324608;28;20243;-69
2023/03/30 05:46:21;;;;;;;8.00;2.50;;;15.30;41.60;;;;;;10325939;28;20242;-69
2023/03/30 05:51:25;;;;;;;6.13;2.67;;;15.30;42.50;;;;;;10349046;28;20234;-69
2023/03/30 05:56:28;;;;;;;8.30;3.03;;;15.30;42.30;;;;;;10309675;28;20230;-69
2023/03/30 06:01:33;;;;;;;7.43;2.57;;;15.20;42.00;;;;;;10332245;28;20715;-69
2023/03/30 06:06:36;;;;;;;7.37;2.70;;;15.20;42.70;;;;;;10325401;28;20676;-70
2023/03/30 06:11:40;;;;;;;9.33;2.90;;;15.20;42.30;;;;;;10333549;28;20231;-71
2023/03/30 06:16:44;;;;;;;5.67;2.40;;;15.10;42.30;;;;;;10330747;28;20229;-70
2023/03/30 06:21:48;;;;;;;8.23;2.93;;;15.10;43.00;;;;;;10332842;28;20659;-70
2023/03/30 06:26:51;;;;;;;7.17;2.60;;;15.10;42.40;;;;;;10327232;28;20235;-70
2023/03/30 06:31:56;;;;;;;7.17;2.53;;;15.10;42.40;;;;;;10316097;28;20265;-71
2023/03/30 06:37:00;;;;;;;6.63;2.30;;;15.10;43.30;;;;;;10299621;28;20235;-71
2023/03/30 06:42:03;;;;;;;7.73;2.77;;;15.10;42.80;;;;;;10305863;28;20226;-71
2023/03/30 06:47:08;;;;;;;6.53;2.77;;;15.10;42.90;;;;;;10302072;28;20239;-71
2023/03/30 06:52:12;;;;;;;7.77;2.40;;;15.10;43.70;;;;;;10315057;28;20227;-71
2023/03/30 06:57:15;;;;;;;6.33;2.47;;;15.10;43.30;;;;;;10308280;28;20231;-72
2023/03/30 07:02:20;;;;;;;11.87;2.73;;;15.20;43.40;;;;;;10303048;28;20255;-72
2023/03/30 07:07:23;;;;;;;6.47;2.60;;;15.20;44.10;;;;;;10323783;28;20246;-72
2023/03/30 07:12:27;;;;;;;5.83;2.37;;;15.30;43.40;;;;;;10308994;28;20230;-72
2023/03/30 07:17:31;;;;;;;8.57;2.80;;;15.30;43.60;;;;;;10311244;28;20231;-73
2023/03/30 07:22:35;;;;;;;6.00;2.47;;;15.40;44.70;;;;;;10313383;28;20660;-72
2023/03/30 07:27:38;;;;;;;8.97;2.87;;;15.50;43.90;;;;;;10310140;28;21185;-73
2023/03/30 07:32:42;;;;;;;8.07;2.63;;;15.60;44.00;;;;;;10310863;28;20547;-72
2023/03/30 07:37:46;;;;;;;7.47;2.70;;;15.60;44.50;;;;;;10312647;28;20230;-72
2023/03/30 07:42:53;;;;;;;10.37;3.20;;;15.80;43.80;;;;;;10302775;28;20593;-72
2023/03/30 07:47:57;;;;;;;9.57;4.40;;;15.90;43.90;;;;;;10306550;28;20242;-73
2023/03/30 07:53:01;;;;;;;8.53;3.43;;;16.00;44.20;;;;;;10311433;28;20230;-72
2023/03/30 07:58:04;;;;;;;7.17;2.77;;;16.10;43.70;;;;;;10305557;28;20234;-72
2023/03/30 08:03:08;;;;;;;10.40;3.07;;;16.20;43.60;;;;;;10306114;28;20231;-73
2023/03/30 08:08:12;;;;;;;6.87;2.53;;;16.20;44.10;;;;;;10312526;28;20237;-72
2023/03/30 08:13:16;;;;;;;8.50;2.63;;;16.20;43.70;;;;;;10295696;28;20798;-72
2023/03/30 08:18:22;;;;;;;7.07;2.73;;;16.30;43.70;;;;;;10301125;28;21588;-72
2023/03/30 08:23:25;;;;;;;7.90;2.80;;;16.30;43.90;;;;;;10299699;28;20235;-72
2023/03/30 08:28:29;;;;;;;9.20;3.13;;;16.30;43.60;;;;;;10311777;28;20226;-72
2023/03/30 08:33:35;;;;;;;9.23;3.03;;;16.30;43.50;;;;;;10308205;28;20723;-72
2023/03/30 08:38:38;;;;;;;6.43;2.50;;;16.30;44.00;;;;;;10312203;28;20238;-72
2023/03/30 08:43:48;;;;;;;8.23;2.70;;;16.30;43.50;;;;;;10309837;28;20234;-72
2023/03/30 08:48:56;;;;;;;7.57;3.33;;;16.30;44.20;;;;;;10304771;28;20726;-73
2023/03/30 08:54:04;;;;;;;7.50;2.80;;;16.30;43.90;;;;;;10308779;28;20246;-72
2023/03/30 08:59:22;;;;;;;7.73;2.80;;;16.40;43.80;;;;;;10312797;28;20249;-72
2023/03/30 09:04:38;;;;;;;6.17;2.70;;;16.30;44.40;;;;;;10319160;28;20266;-72
2023/03/30 09:09:43;;;;;;;6.73;2.63;;;16.40;44.70;;;;;;10318366;28;20285;-72
2023/03/30 09:14:54;;;;;;;8.33;2.83;;;16.40;44.30;;;;;;10321981;28;20215;-73
2023/03/30 09:20:05;;;;;;;7.43;2.83;;;16.40;44.40;;;;;;10322415;28;20239;-72
2023/03/30 09:25:17;;;;;;;6.07;2.80;;;16.50;45.00;;;;;;10323231;28;20227;-72
2023/03/30 09:30:22;;;;;;;6.17;2.50;;;16.60;44.90;;;;;;10328091;28;20962;-72
2023/03/30 09:35:35;;;;;;;8.20;2.50;;;16.60;44.40;;;;;;10320087;28;20612;-72
2023/03/30 09:40:50;;;;;;;6.03;2.60;;;16.70;44.80;;;;;;10326196;28;20310;-72
2023/03/30 09:45:56;;;;;;;5.60;2.60;;;16.80;45.20;;;;;;10321108;28;20277;-72
2023/03/30 09:51:01;;;;;;;8.30;2.70;;;16.90;44.40;;;;;;10351740;28;20301;-71
2023/03/30 09:56:10;;;;;;;6.20;2.70;;;17.00;44.40;;;;;;10322452;28;20769;-72
2023/03/30 10:01:15;;;;;;;6.80;2.67;;;17.10;45.00;;;;;;10325178;28;20235;-71
2023/03/30 10:06:20;;;;;;;6.10;2.50;;;17.20;44.50;;;;;;10320790;28;20224;-72
2023/03/30 10:11:35;;;;;;;8.70;2.90;;;17.30;44.10;;;;;;10319100;28;20254;-72
2023/03/30 10:16:38;;;;;;;7.17;2.97;;;17.30;44.70;;;;;;10309982;28;20234;-72
2023/03/30 10:21:45;;;;;;;6.97;2.47;;;17.30;43.90;;;;;;10315298;28;20231;-71
2023/03/30 10:26:52;;;;;;;7.67;2.87;;;17.40;44.20;;;;;;10313746;28;20285;-72
2023/03/30 10:32:00;;;;;;;5.13;2.50;;;17.40;44.30;;;;;;10313732;28;20229;-72
2023/03/30 10:37:10;;;;;;;6.03;2.70;;;17.50;44.00;;;;;;10313528;28;20730;-72
2023/03/30 10:42:17;;;;;;;7.97;2.70;;;17.50;43.90;;;;;;10310673;28;20237;-72
2023/03/30 10:47:37;;;;;;;9.47;2.87;;;17.50;43.70;;;;;;10314475;28;20242;-72
2023/03/30 10:52:50;;;;;;;7.60;2.83;;;17.50;44.20;;;;;;10312596;28;21573;-72
2023/03/30 10:58:12;;;;;;;11.07;3.70;;;17.50;43.40;;;;;;10317881;28;20222;-73
2023/03/30 11:03:22;;;;;;;8.00;4.30;;;17.40;43.70;;;;;;10310150;28;20575;-73
2023/03/30 11:08:32;;;;;;;7.30;2.90;;;17.40;43.70;;;;;;10309396;28;20231;-73
2023/03/30 11:13:38;;;;;;;8.97;2.73;;;17.30;43.80;;;;;;10305965;28;20346;-73
2023/03/30 11:18:47;;;;;;;8.67;2.77;;;17.30;43.40;;;;;;10309142;28;20227;-74
2023/03/30 11:23:54;;;;;;;8.17;3.20;;;17.20;43.60;;;;;;10315461;28;20228;-73
2023/03/30 11:29:21;;;;;;;6.93;3.10;;;17.20;43.80;;;;;;10320597;28;20238;-74
2023/03/30 11:34:31;;;;;;;6.00;2.90;;;17.10;43.70;;;;;;10312462;28;20258;-73
2023/03/30 11:39:41;;;;;;;5.40;2.30;;;17.00;43.70;;;;;;10308962;28;20231;-73
2023/03/30 11:44:44;;;;;;;4.63;2.30;;;17.00;43.70;;;;;;10311914;28;21565;-73
2023/03/30 11:50:04;;;;;;;7.00;2.73;;;16.90;43.10;;;;;;10301681;28;20227;-73
2023/03/30 11:55:46;;;;;;;5.90;2.50;;;16.90;43.60;;;;;;10306730;28;20219;-75
2023/03/30 12:01:00;;;;;;;7.17;3.03;;;16.70;43.10;;;;;;10232051;28;20773;-75
2023/03/30 12:06:30;;;;;;;5.77;3.07;;;16.60;43.30;;;;;;10300708;28;20785;-75
2023/03/30 12:11:39;;;;;;;6.53;3.23;;;16.50;43.30;;;;;;10250595;23;20514;-69
2023/03/30 12:16:47;;;;;;;5.57;3.20;;;16.30;43.80;;;;;;10191662;28;20251;-68
2023/03/30 12:21:55;;;;;;;5.63;3.00;;;16.20;43.60;;;;;;10189276;29;20315;-68
2023/03/30 12:27:00;;;;;;;5.40;3.20;;;16.10;43.80;;;;;;10185526;28;20254;-68
2023/03/30 12:32:21;;;;;;;5.77;3.20;;;16.00;43.70;;;;;;10188546;28;20270;-70
2023/03/30 12:37:28;;;;;;;4.07;2.90;;;15.90;44.60;;;;;;10186225;29;20340;-68
2023/03/30 12:42:34;;;;;;;5.00;2.80;;;15.90;44.20;;;;;;10186067;28;20237;-68
2023/03/30 12:47:50;;;;;;;4.77;2.63;;;15.80;44.10;;;;;;10194044;28;20676;-68
2023/03/30 12:53:04;;;;;;;4.60;2.90;;;15.80;44.30;;;;;;10193526;28;20593;-68
2023/03/30 12:59:06;;;;;;;5.20;2.77;;;15.80;44.30;;;;;;10278705;28;20223;-69
2023/03/30 13:04:13;;;;;;;3.30;2.90;;;15.80;43.70;;;;;;10187930;28;20231;-68
2023/03/30 13:09:52;;;;;;;4.13;2.20;;;15.80;44.20;;;;;;10262694;28;20285;-69
2023/03/30 13:15:03;;;;;;;4.10;2.53;;;15.80;43.50;;;;;;10264703;28;20626;-69
2023/03/30 13:20:15;;;;;;;3.70;2.40;;;15.80;43.60;;;;;;10268486;28;20238;-69
2023/03/30 13:25:39;;;;;;;4.37;2.27;;;15.80;43.60;;;;;;10272708;28;20250;-69
2023/03/30 13:30:45;;;;;;;2.70;2.13;;;15.80;44.00;;;;;;10279672;28;20239;-69
2023/03/30 13:35:58;;;;;;;2.37;1.90;;;15.80;43.30;;;;;;10276975;28;20502;-71
2023/03/30 13:41:15;;;;;;;3.50;1.87;;;15.70;43.40;;;;;;10279258;28;20237;-72
2023/03/30 13:46:28;;;;;;;3.43;2.03;;;15.70;43.50;;;;;;10279387;28;20234;-70
2023/03/30 13:51:32;;;;;;;2.10;1.97;;;15.70;43.80;;;;;;10278537;28;20314;-70
2023/03/30 13:56:38;;;;;;;4.70;3.20;;;15.70;43.40;;;;;;10274817;28;20230;-70
2023/03/30 14:01:46;;;;;;;2.67;2.47;;;15.80;43.90;;;;;;10272973;28;20227;-70
2023/03/30 14:06:51;;;;;;;3.70;2.17;;;15.90;44.10;;;;;;10274879;28;20315;-70
2023/03/30 14:11:57;;;;;;;4.20;2.90;;;16.00;43.90;;;;;;10277015;28;20227;-70
2023/03/30 14:17:11;;;;;;;3.73;2.30;;;16.20;43.90;;;;;;10279556;28;20225;-70
2023/03/30 14:22:18;;;;;;;3.00;2.33;;;16.30;43.90;;;;;;10278420;28;20237;-68
2023/03/30 14:27:22;;;;;;;4.33;3.00;;;16.30;44.30;;;;;;10272394;28;20232;-70
2023/03/30 14:32:26;;;;;;;2.90;2.37;;;16.30;43.80;;;;;;10276684;28;20228;-70
2023/03/30 14:37:31;;;;;;;5.57;3.03;;;16.40;43.70;;;;;;10280475;28;20234;-69
2023/03/30 14:42:34;;;;;;;4.40;3.03;;;16.50;43.80;;;;;;10279346;28;20231;-69
2023/03/30 14:47:39;;;;;;;3.20;2.90;;;16.50;43.50;;;;;;10275142;28;20239;-70
2023/03/30 14:52:44;;;;;;;3.13;2.77;;;16.60;43.60;;;;;;10272735;28;20734;-69
2023/03/30 14:57:48;;;;;;;4.13;2.77;;;16.70;43.60;;;;;;10271910;28;20222;-69
2023/03/30 15:02:56;;;;;;;3.43;2.60;;;16.80;43.20;;;;;;10271355;28;20593;-69
2023/03/30 15:08:02;;;;;;;4.50;2.50;;;16.80;43.00;;;;;;10274814;28;20708;-69
2023/03/30 15:13:07;;;;;;;3.70;2.40;;;16.90;43.00;;;;;;10271838;28;20607;-70
2023/03/30 15:18:19;;;;;;;3.53;3.00;;;16.90;43.00;;;;;;10272583;28;20675;-70
2023/03/30 15:23:24;;;;;;;4.90;2.80;;;16.90;42.90;;;;;;10272285;28;20242;-69
2023/03/30 15:28:32;;;;;;;4.00;2.57;;;17.00;43.20;;;;;;10271696;28;20234;-69
2023/03/30 15:33:41;;;;;;;4.90;2.50;;;17.00;43.00;;;;;;10273944;28;20242;-69
2023/03/30 15:38:49;;;;;;;4.57;2.63;;;17.10;42.60;;;;;;10268148;28;20436;-69
2023/03/30 15:43:57;;;;;;;3.60;2.43;;;17.10;42.60;;;;;;10268323;28;20323;-69
2023/03/30 15:49:03;;;;;;;5.90;2.63;;;17.10;42.40;;;;;;10272069;28;20623;-69
2023/03/30 15:54:12;;;;;;;2.83;2.40;;;17.20;42.20;;;;;;10268317;28;20235;-69
2023/03/30 15:59:18;;;;;;;4.73;2.60;;;17.30;41.90;;;;;;10275714;28;20230;-69
2023/03/30 16:04:24;;;;;;;4.03;2.60;;;17.30;41.60;;;;;;10277587;28;20228;-69
2023/03/30 16:09:27;;;;;;;4.23;2.60;;;17.40;41.30;;;;;;10272144;28;20227;-69
2023/03/30 16:14:31;;;;;;;4.30;2.50;;;17.40;41.60;;;;;;10263440;28;20728;-69
2023/03/30 16:19:37;;;;;;;3.60;2.50;;;17.40;41.90;;;;;;10265455;28;20689;-69
2023/03/30 16:24:40;;;;;;;3.10;2.33;;;17.50;40.80;;;;;;10271090;28;20227;-69
2023/03/30 16:29:44;;;;;;;2.57;2.33;;;17.50;41.00;;;;;;10271979;28;20223;-69
2023/03/30 16:34:48;;;;;;;3.53;2.60;;;17.50;41.00;;;;;;10265478;28;20228;-69
2023/03/30 16:39:51;;;;;;;4.30;2.73;;;17.50;40.50;;;;;;10265429;28;20237;-69
2023/03/30 16:44:55;;;;;;;3.97;2.27;;;17.50;40.60;;;;;;10263459;28;20227;-69
2023/03/30 16:49:59;;;;;;;4.33;2.50;;;17.50;40.50;;;;;;10263207;28;20528;-69
2023/03/30 16:55:03;;;;;;;3.20;2.40;;;17.40;40.20;;;;;;10255456;28;20791;-69
2023/03/30 17:00:16;;;;;;;4.17;2.47;;;17.30;41.00;;;;;;10260668;28;20306;-69
2023/03/30 17:05:20;;;;;;;3.33;2.63;;;17.20;40.20;;;;;;10263510;28;20726;-69
2023/03/30 17:10:25;;;;;;;2.87;2.47;;;17.20;40.20;;;;;;10272618;28;20238;-69
2023/03/30 17:15:29;;;;;;;3.87;2.60;;;17.10;40.20;;;;;;10263825;28;20692;-70
2023/03/30 17:20:38;;;;;;;3.17;2.70;;;17.10;40.10;;;;;;10276703;28;20235;-69
2023/03/30 17:25:45;;;;;;;3.53;2.23;;;17.10;40.10;;;;;;10270559;28;20235;-70
2023/03/30 17:30:53;;;;;;;3.27;2.13;;;17.00;40.30;;;;;;10271813;28;20760;-70
2023/03/30 17:36:01;;;;;;;4.73;2.47;;;17.00;40.20;;;;;;10282969;28;20250;-70
2023/03/30 17:41:04;;;;;;;3.27;2.20;;;16.90;40.00;;;;;;10277348;28;20227;-70
2023/03/30 17:46:08;;;;;;;2.60;1.90;;;16.90;40.40;;;;;;10277019;28;20227;-70
2023/03/30 17:51:12;;;;;;;1.90;1.70;;;17.00;40.10;;;;;;10278580;28;20321;-70
2023/03/30 17:56:15;;;;;;;2.67;1.70;;;16.90;39.20;;;;;;10277239;28;20235;-70
2023/03/30 18:01:18;;;;;;;3.47;2.40;;;16.90;39.40;;;;;;10274480;28;20239;-70
2023/03/30 18:06:23;;;;;;;2.30;2.10;;;16.90;39.50;;;;;;10280001;28;20827;-70
2023/03/30 18:11:27;;;;;;;4.50;2.93;;;16.80;39.20;;;;;;10281833;28;20610;-70
2023/03/30 18:16:30;;;;;;;5.70;3.23;;;16.60;39.30;;;;;;10281162;28;20929;-70
2023/03/30 18:21:35;;;;;;;4.47;3.30;;;16.60;39.60;;;;;;10271399;28;20554;-70
2023/03/30 18:26:39;;;;;;;5.07;3.30;;;16.50;39.60;;;;;;10281101;28;20242;-70
2023/03/30 18:31:42;;;;;;;4.20;2.80;;;16.40;39.90;;;;;;10279337;28;20235;-69
2023/03/30 18:36:48;;;;;;;6.53;3.60;;;16.30;40.10;;;;;;10270218;28;20228;-69
2023/03/30 18:41:51;;;;;;;5.30;3.33;;;16.30;40.30;;;;;;10275448;28;20228;-69
2023/03/30 18:46:54;;;;;;;4.60;3.60;;;16.20;40.30;;;;;;10279165;28;20274;-69
2023/03/30 18:51:59;;;;;;;5.67;3.17;;;16.10;40.40;;;;;;10279639;28;20569;-69
2023/03/30 18:57:03;;;;;;;6.10;3.33;;;16.10;40.60;;;;;;10284097;28;20235;-70
2023/03/30 19:02:06;;;;;;;5.20;3.23;;;16.00;40.70;;;;;;10268192;28;20267;-68
2023/03/30 19:07:11;;;;;;;5.37;3.20;;;16.00;40.70;;;;;;10280268;28;20583;-69
2023/03/30 19:12:18;;;;;;;5.17;3.37;;;15.90;40.60;;;;;;10276532;28;20274;-70
2023/03/30 19:17:23;;;;;;;4.73;3.10;;;15.90;40.70;;;;;;10278716;28;20227;-69
2023/03/30 19:22:28;;;;;;;4.43;3.00;;;15.80;40.60;;;;;;10274501;28;20580;-69
2023/03/30 19:27:32;;;;;;;4.40;3.33;;;15.70;40.60;;;;;;10279055;28;20235;-70
2023/03/30 19:32:36;;;;;;;3.97;3.00;;;15.70;40.70;;;;;;10264177;28;20236;-72
2023/03/30 19:37:42;;;;;;;4.30;2.97;;;15.60;40.80;;;;;;10271397;28;20409;-71
2023/03/30 19:42:46;;;;;;;4.67;2.60;;;15.50;40.90;;;;;;10276143;28;20326;-72
2023/03/30 19:47:50;;;;;;;4.80;2.90;;;15.40;40.90;;;;;;10276447;28;20227;-72
2023/03/30 19:52:55;;;;;;;3.93;2.57;;;15.30;41.00;;;;;;10262841;28;20235;-72
2023/03/30 19:58:00;;;;;;;3.20;2.87;;;15.20;41.10;;;;;;10263524;28;20231;-73
2023/03/30 20:03:04;;;;;;;5.73;3.10;;;15.20;41.10;;;;;;10266413;28;20236;-73
2023/03/30 20:08:09;;;;;;;6.37;4.50;;;15.10;41.00;;;;;;10249658;28;20236;-73
2023/03/30 20:13:27;;;;;;;4.07;3.47;;;15.10;41.20;;;;;;10280827;28;20231;-76
2023/03/30 20:18:30;;;;;;;3.80;3.43;;;15.00;41.80;;;;;;10265932;28;20235;-73
2023/03/30 20:23:35;;;;;;;4.37;3.47;;;15.00;41.00;;;;;;10270791;28;20246;-73
2023/03/30 20:28:40;;;;;;;7.90;3.27;;;15.00;40.90;;;;;;10269636;28;20280;-73
2023/03/30 20:33:43;;;;;;;5.87;2.77;;;15.00;40.70;;;;;;10268152;28;20746;-73
2023/03/30 20:38:49;;;;;;;3.03;2.33;;;14.90;40.40;;;;;;10274718;28;20226;-75
2023/03/30 20:43:54;;;;;;;2.93;2.10;;;14.90;40.30;;;;;;10280268;28;20223;-75
2023/03/30 20:49:00;;;;;;;2.90;2.03;;;14.80;40.30;;;;;;10273882;28;20224;-75
2023/03/30 20:54:05;;;;;;;2.33;2.03;;;14.80;40.50;;;;;;10272201;28;20513;-74
2023/03/30 20:59:09;;;;;;;2.63;1.97;;;14.70;40.40;;;;;;10269667;28;20238;-75
2023/03/30 21:04:12;;;;;;;2.30;1.80;;;14.60;40.40;;;;;;10276456;28;20232;-74
2023/03/30 21:09:17;;;;;;;3.73;2.20;;;14.60;40.40;;;;;;10279783;28;20245;-72
2023/03/30 21:14:22;;;;;;;4.40;1.90;;;14.60;40.40;;;;;;10277287;28;20261;-72
2023/03/30 21:19:25;;;;;;;2.93;1.80;;;14.60;40.20;;;;;;10281455;28;20227;-72
2023/03/30 21:24:30;;;;;;;3.40;2.00;;;14.60;40.20;;;;;;10277240;28;20227;-72
2023/03/30 21:29:33;;;;;;;3.40;2.20;;;14.60;40.00;;;;;;10279260;28;20235;-72
2023/03/30 21:34:36;;;;;;;2.37;1.97;;;14.60;40.00;;;;;;10276697;28;20231;-72
2023/03/30 21:39:42;;;;;;;5.23;2.10;;;14.60;39.90;;;;;;10279865;28;20236;-72
2023/03/30 21:44:46;;;;;;;3.67;2.10;;;14.60;39.60;;;;;;10277498;28;20245;-72
2023/03/30 21:49:50;;;;;;;3.27;1.70;;;14.60;39.70;;;;;;10274359;28;20231;-72
2023/03/30 21:54:55;;;;;;;3.10;2.27;;;14.70;39.60;;;;;;10281682;28;20239;-72
2023/03/30 21:59:58;;;;;;;5.17;2.97;;;14.60;39.50;;;;;;10281951;28;20720;-72
2023/03/30 22:05:01;;;;;;;3.50;2.43;;;14.60;39.50;;;;;;10282042;28;20238;-72
2023/03/30 22:10:06;;;;;;;3.37;2.23;;;14.60;39.40;;;;;;10281683;28;20236;-73
2023/03/30 22:15:10;;;;;;;4.77;3.27;;;14.60;39.30;;;;;;10279251;28;20246;-73
2023/03/30 22:20:13;;;;;;;3.97;2.20;;;14.60;39.30;;;;;;10282430;28;20707;-72
2023/03/30 22:25:18;;;;;;;2.63;1.87;;;14.60;39.30;;;;;;10279689;28;20232;-72
2023/03/30 22:30:21;;;;;;;2.70;2.10;;;14.50;38.90;;;;;;10279909;28;20248;-72
2023/03/30 22:35:24;;;;;;;3.00;2.23;;;14.30;39.00;;;;;;10280900;28;20985;-72
2023/03/30 22:40:29;;;;;;;3.67;2.10;;;14.20;39.00;;;;;;10272164;28;20236;-72
2023/03/30 22:45:32;;;;;;;3.47;2.10;;;14.10;39.10;;;;;;10277118;28;20278;-72
2023/03/30 22:50:36;;;;;;;3.20;2.00;;;14.00;39.00;;;;;;10279944;28;20589;-72
2023/03/30 22:55:40;;;;;;;3.50;2.43;;;13.90;39.00;;;;;;10282237;28;20227;-73
2023/03/30 23:00:43;;;;;;;3.63;2.27;;;13.70;39.00;;;;;;10281294;28;20285;-73
2023/03/30 23:05:51;;;;;;;3.63;2.03;;;13.70;39.10;;;;;;10277012;28;20261;-73
2023/03/30 23:10:56;;;;;;;2.70;2.13;;;13.50;39.20;;;;;;10274611;28;20235;-73
2023/03/30 23:16:00;;;;;;;3.87;2.03;;;13.40;39.30;;;;;;10273154;28;20707;-73
2023/03/30 23:21:05;;;;;;;4.17;2.33;;;13.40;39.40;;;;;;10277213;28;20234;-74
2023/03/30 23:26:11;;;;;;;3.37;2.03;;;13.20;39.40;;;;;;10281496;28;20637;-73
2023/03/30 23:31:16;;;;;;;2.40;2.20;;;13.20;39.70;;;;;;10281183;28;20236;-72
2023/03/30 23:36:19;;;;;;;3.90;2.40;;;13.10;39.80;;;;;;10272070;28;20746;-73
2023/03/30 23:41:24;;;;;;;2.97;1.93;;;13.00;40.10;;;;;;10274207;28;20240;-72
2023/03/30 23:46:27;;;;;;;3.70;2.17;;;12.90;40.20;;;;;;10277848;28;20231;-73
2023/03/30 23:51:31;;;;;;;4.67;2.30;;;12.90;40.30;;;;;;10276418;28;20246;-73
2023/03/30 23:56:37;;;;;;;4.10;2.10;;;12.90;40.30;;;;;;10278204;28;20230;-72
